AEN90C EDDH-EGCC
Flight info
| Callsign | AEN90C |
|---|---|
| Flight time | 1h 23m |
| Altitude | 38000 |
| Route | WSN5G WSN N125 ITMIZ DCT MIMVA DCT OTBED |
| Aircraft | A320/M-SDE3FGHIRWY/LB1 |
Departure
| Time | 2026-04-30 19:12 |
|---|---|
| Airport | Hamburg Helmut Schmidt Airport (EDDH) |
Arrival
| Time | 2026-04-30 20:35 |
|---|---|
| Airport | Manchester Airport (EGCC) |
| Time | Latitude | Longitude | Altitude | Speed | Heading |
|---|---|---|---|---|---|
| 2026-04-30 18:19 | 53.63097 | 10.00011 | 46 ft | 0 kts | 140° |
| 2026-04-30 18:54 | 53.63113 | 9.99989 | 45 ft | 4 kts | 149° |
| 2026-04-30 18:55 | 53.63137 | 9.99973 | 47 ft | 4 kts | 181° |
| 2026-04-30 18:55 | 53.63156 | 9.99984 | 48 ft | 0 kts | 231° |
| 2026-04-30 19:00 | 53.63155 | 9.99983 | 45 ft | 1 kts | 231° |
| 2026-04-30 19:01 | 53.63088 | 9.99889 | 48 ft | 10 kts | 184° |
| 2026-04-30 19:01 | 53.63021 | 9.99935 | 48 ft | 11 kts | 153° |
| 2026-04-30 19:02 | 53.62912 | 9.99961 | 47 ft | 7 kts | 235° |
| 2026-04-30 19:02 | 53.62897 | 9.99915 | 48 ft | 0 kts | 243° |
| 2026-04-30 19:04 | 53.62895 | 9.99910 | 48 ft | 0 kts | 243° |
| 2026-04-30 19:10 | 53.62874 | 9.99839 | 44 ft | 9 kts | 244° |
| 2026-04-30 19:10 | 53.62893 | 9.99724 | 45 ft | 0 kts | 333° |
| 2026-04-30 19:11 | 53.62958 | 9.99668 | 45 ft | 39 kts | 333° |
| 2026-04-30 19:11 | 53.63432 | 9.99260 | 45 ft | 110 kts | 332° |
| 2026-04-30 19:12 | 53.64281 | 9.98525 | 58 ft | 161 kts | 334° |
| 2026-04-30 19:12 | 53.65284 | 9.97667 | 732 ft | 160 kts | 335° |
| 2026-04-30 19:12 | 53.66282 | 9.96832 | 1430 ft | 161 kts | 335° |
| 2026-04-30 19:13 | 53.68426 | 9.95020 | 2391 ft | 190 kts | 334° |
| 2026-04-30 19:13 | 53.70939 | 9.92618 | 3250 ft | 224 kts | 314° |
| 2026-04-30 19:13 | 53.71590 | 9.90212 | 3794 ft | 238 kts | 273° |
| 2026-04-30 19:14 | 53.71369 | 9.87325 | 4241 ft | 261 kts | 254° |
| 2026-04-30 19:14 | 53.70806 | 9.84376 | 4945 ft | 273 kts | 249° |
| 2026-04-30 19:14 | 53.70119 | 9.81334 | 5795 ft | 280 kts | 247° |
| 2026-04-30 19:14 | 53.69407 | 9.78230 | 6672 ft | 287 kts | 248° |
| 2026-04-30 19:15 | 53.68699 | 9.75042 | 7510 ft | 293 kts | 249° |
| 2026-04-30 19:15 | 53.67329 | 9.68458 | 9259 ft | 301 kts | 250° |
| 2026-04-30 19:15 | 53.66653 | 9.65077 | 10146 ft | 305 kts | 251° |
| 2026-04-30 19:16 | 53.65974 | 9.61633 | 10782 ft | 318 kts | 251° |
| 2026-04-30 19:16 | 53.65128 | 9.58044 | 11079 ft | 341 kts | 242° |
| 2026-04-30 19:16 | 53.62393 | 9.51268 | 12387 ft | 356 kts | 232° |
| 2026-04-30 19:17 | 53.60934 | 9.47869 | 13137 ft | 361 kts | 232° |
| 2026-04-30 19:17 | 53.57946 | 9.40912 | 14559 ft | 372 kts | 232° |
| 2026-04-30 19:17 | 53.56424 | 9.37372 | 15203 ft | 375 kts | 232° |
| 2026-04-30 19:18 | 53.53828 | 9.31350 | 16029 ft | 391 kts | 232° |
| 2026-04-30 19:18 | 53.51669 | 9.26358 | 16815 ft | 398 kts | 232° |
| 2026-04-30 19:18 | 53.50035 | 9.22583 | 17442 ft | 402 kts | 233° |
| 2026-04-30 19:19 | 53.48379 | 9.18765 | 18062 ft | 405 kts | 233° |
| 2026-04-30 19:19 | 53.46711 | 9.14932 | 18691 ft | 409 kts | 233° |
| 2026-04-30 19:19 | 53.43328 | 9.07155 | 19768 ft | 415 kts | 233° |
| 2026-04-30 19:20 | 53.41619 | 9.03240 | 20304 ft | 418 kts | 233° |
| 2026-04-30 19:20 | 53.39889 | 8.99287 | 20844 ft | 421 kts | 233° |
| 2026-04-30 19:20 | 53.36421 | 8.91383 | 21874 ft | 427 kts | 233° |
| 2026-04-30 19:21 | 53.34821 | 8.87179 | 22374 ft | 430 kts | 243° |
| 2026-04-30 19:21 | 53.32603 | 8.77853 | 23376 ft | 434 kts | 251° |
| 2026-04-30 19:22 | 53.30502 | 8.68332 | 24346 ft | 437 kts | 250° |
| 2026-04-30 19:22 | 53.27309 | 8.53943 | 25591 ft | 443 kts | 251° |
| 2026-04-30 19:23 | 53.24319 | 8.39239 | 26763 ft | 448 kts | 254° |
| 2026-04-30 19:24 | 53.22514 | 8.29236 | 27534 ft | 452 kts | 254° |
| 2026-04-30 19:24 | 53.21596 | 8.24211 | 27919 ft | 454 kts | 254° |
| 2026-04-30 19:24 | 53.19705 | 8.14192 | 28672 ft | 457 kts | 253° |
| 2026-04-30 19:25 | 53.16807 | 7.98965 | 29692 ft | 462 kts | 253° |
| 2026-04-30 19:26 | 53.14873 | 7.88713 | 30346 ft | 465 kts | 253° |
| 2026-04-30 19:26 | 53.12904 | 7.78401 | 30992 ft | 466 kts | 253° |
| 2026-04-30 19:26 | 53.11922 | 7.73276 | 31380 ft | 465 kts | 253° |
| 2026-04-30 19:27 | 53.10656 | 7.62807 | 32101 ft | 460 kts | 268° |
| 2026-04-30 19:27 | 53.10771 | 7.52198 | 32850 ft | 457 kts | 272° |
| 2026-04-30 19:28 | 53.10857 | 7.46923 | 33229 ft | 456 kts | 272° |
| 2026-04-30 19:28 | 53.11017 | 7.36402 | 33978 ft | 454 kts | 272° |
| 2026-04-30 19:29 | 53.11167 | 7.25987 | 34685 ft | 452 kts | 272° |
| 2026-04-30 19:29 | 53.11239 | 7.20765 | 34991 ft | 451 kts | 272° |
| 2026-04-30 19:30 | 53.11439 | 7.05106 | 35824 ft | 450 kts | 272° |
| 2026-04-30 19:30 | 53.11555 | 6.94685 | 36321 ft | 450 kts | 272° |
| 2026-04-30 19:31 | 53.11660 | 6.84280 | 36862 ft | 449 kts | 271° |
| 2026-04-30 19:31 | 53.11714 | 6.79075 | 37099 ft | 449 kts | 272° |
| 2026-04-30 19:31 | 53.11816 | 6.68698 | 37577 ft | 448 kts | 272° |
| 2026-04-30 19:32 | 53.11863 | 6.63508 | 37826 ft | 447 kts | 271° |
| 2026-04-30 19:32 | 53.11905 | 6.58340 | 38062 ft | 447 kts | 271° |
| 2026-04-30 19:32 | 53.11947 | 6.53163 | 38294 ft | 447 kts | 271° |
| 2026-04-30 19:32 | 53.11987 | 6.47989 | 38375 ft | 447 kts | 271° |
| 2026-04-30 19:33 | 53.12058 | 6.37707 | 38377 ft | 446 kts | 271° |
| 2026-04-30 19:33 | 53.12120 | 6.27361 | 38374 ft | 447 kts | 271° |
| 2026-04-30 19:34 | 53.12176 | 6.17015 | 38375 ft | 446 kts | 271° |
| 2026-04-30 19:35 | 53.12241 | 6.01491 | 38375 ft | 447 kts | 270° |
| 2026-04-30 19:35 | 53.12277 | 5.91132 | 38381 ft | 447 kts | 270° |
| 2026-04-30 19:36 | 53.12301 | 5.80799 | 38377 ft | 438 kts | 270° |
| 2026-04-30 19:36 | 53.12311 | 5.65996 | 38378 ft | 416 kts | 270° |
| 2026-04-30 19:37 | 53.12305 | 5.56477 | 38360 ft | 412 kts | 269° |
| 2026-04-30 19:37 | 53.12303 | 5.46902 | 38357 ft | 414 kts | 269° |
| 2026-04-30 19:38 | 53.12293 | 5.37282 | 38357 ft | 417 kts | 269° |
| 2026-04-30 19:38 | 53.12268 | 5.27652 | 38357 ft | 415 kts | 269° |
| 2026-04-30 19:39 | 53.12236 | 5.18032 | 38350 ft | 415 kts | 269° |
| 2026-04-30 19:39 | 53.12198 | 5.08476 | 38346 ft | 415 kts | 269° |
| 2026-04-30 19:40 | 53.12156 | 4.98867 | 38360 ft | 414 kts | 268° |
| 2026-04-30 19:40 | 53.12106 | 4.89271 | 38360 ft | 414 kts | 268° |
| 2026-04-30 19:41 | 53.12042 | 4.79686 | 38366 ft | 413 kts | 268° |
| 2026-04-30 19:41 | 53.11971 | 4.70130 | 38360 ft | 413 kts | 267° |
| 2026-04-30 19:42 | 53.11911 | 4.62174 | 38353 ft | 413 kts | 268° |
| 2026-04-30 19:42 | 53.11833 | 4.52614 | 38355 ft | 413 kts | 268° |
| 2026-04-30 19:43 | 53.11741 | 4.43059 | 38350 ft | 413 kts | 267° |
| 2026-04-30 19:44 | 53.11584 | 4.28725 | 38352 ft | 412 kts | 267° |
| 2026-04-30 19:44 | 53.11477 | 4.19164 | 38346 ft | 413 kts | 268° |
| 2026-04-30 19:45 | 53.11360 | 4.09622 | 38350 ft | 412 kts | 266° |
| 2026-04-30 19:45 | 53.11236 | 4.00081 | 38339 ft | 412 kts | 267° |
| 2026-04-30 19:46 | 53.11105 | 3.90543 | 38345 ft | 412 kts | 267° |
| 2026-04-30 19:46 | 53.10965 | 3.81019 | 38343 ft | 412 kts | 266° |
| 2026-04-30 19:47 | 53.10819 | 3.71496 | 38340 ft | 412 kts | 265° |
| 2026-04-30 19:47 | 53.10667 | 3.62038 | 38339 ft | 411 kts | 267° |
| 2026-04-30 19:48 | 53.10504 | 3.52508 | 38340 ft | 411 kts | 265° |
| 2026-04-30 19:48 | 53.10338 | 3.42998 | 38311 ft | 411 kts | 265° |
| 2026-04-30 19:49 | 53.10161 | 3.33490 | 38311 ft | 411 kts | 266° |
| 2026-04-30 19:49 | 53.10878 | 3.19254 | 38294 ft | 412 kts | 274° |
| 2026-04-30 19:50 | 53.11542 | 3.09770 | 38291 ft | 412 kts | 274° |
| 2026-04-30 19:50 | 53.12197 | 3.00283 | 38325 ft | 412 kts | 274° |
| 2026-04-30 19:51 | 53.12843 | 2.90852 | 38325 ft | 412 kts | 274° |
| 2026-04-30 19:51 | 53.13482 | 2.81372 | 38318 ft | 412 kts | 274° |
| 2026-04-30 19:52 | 53.14111 | 2.71872 | 38316 ft | 412 kts | 274° |
| 2026-04-30 19:52 | 53.14731 | 2.62391 | 38317 ft | 412 kts | 273° |
| 2026-04-30 19:53 | 53.15349 | 2.52901 | 38317 ft | 412 kts | 274° |
| 2026-04-30 19:53 | 53.15957 | 2.43422 | 38314 ft | 411 kts | 274° |
| 2026-04-30 19:54 | 53.16551 | 2.33955 | 38316 ft | 411 kts | 274° |
| 2026-04-30 19:54 | 53.17146 | 2.24487 | 38313 ft | 410 kts | 273° |
| 2026-04-30 19:55 | 53.17733 | 2.15023 | 38316 ft | 410 kts | 273° |
| 2026-04-30 19:55 | 53.18302 | 2.05622 | 38313 ft | 410 kts | 273° |
| 2026-04-30 19:56 | 53.18873 | 1.96103 | 38319 ft | 410 kts | 273° |
| 2026-04-30 19:56 | 53.19433 | 1.86709 | 38318 ft | 409 kts | 273° |
| 2026-04-30 19:57 | 53.19987 | 1.77276 | 38313 ft | 409 kts | 273° |
| 2026-04-30 19:57 | 53.20528 | 1.67837 | 38310 ft | 408 kts | 272° |
| 2026-04-30 19:58 | 53.21063 | 1.58403 | 38306 ft | 408 kts | 273° |
| 2026-04-30 19:58 | 53.21592 | 1.48967 | 38310 ft | 408 kts | 272° |
| 2026-04-30 19:59 | 53.22118 | 1.39522 | 38299 ft | 408 kts | 272° |
| 2026-04-30 20:00 | 53.22888 | 1.25425 | 38294 ft | 408 kts | 272° |
| 2026-04-30 20:00 | 53.23387 | 1.15976 | 38288 ft | 408 kts | 272° |
| 2026-04-30 20:01 | 53.24120 | 1.01798 | 38304 ft | 408 kts | 272° |
| 2026-04-30 20:01 | 53.24608 | 0.92346 | 38286 ft | 409 kts | 272° |
| 2026-04-30 20:02 | 53.25333 | 0.78088 | 37933 ft | 421 kts | 271° |
| 2026-04-30 20:03 | 53.25820 | 0.68069 | 37389 ft | 442 kts | 271° |
| 2026-04-30 20:03 | 53.26066 | 0.62926 | 37120 ft | 446 kts | 271° |
| 2026-04-30 20:03 | 53.26312 | 0.57739 | 36850 ft | 448 kts | 271° |
| 2026-04-30 20:03 | 53.26559 | 0.52546 | 36587 ft | 449 kts | 271° |
| 2026-04-30 20:04 | 53.26807 | 0.47327 | 36342 ft | 451 kts | 271° |
| 2026-04-30 20:04 | 53.27056 | 0.42096 | 36072 ft | 452 kts | 271° |
| 2026-04-30 20:04 | 53.27300 | 0.36892 | 35201 ft | 458 kts | 271° |
| 2026-04-30 20:05 | 53.27790 | 0.26334 | 34080 ft | 450 kts | 270° |
| 2026-04-30 20:05 | 53.28026 | 0.21115 | 33337 ft | 449 kts | 270° |
| 2026-04-30 20:05 | 53.28481 | 0.10695 | 31697 ft | 451 kts | 270° |
| 2026-04-30 20:06 | 53.28853 | 0.05448 | 30863 ft | 456 kts | 278° |
| 2026-04-30 20:06 | 53.29720 | 0.00340 | 29982 ft | 461 kts | 288° |
| 2026-04-30 20:06 | 53.31061 | -0.04564 | 28987 ft | 465 kts | 293° |
| 2026-04-30 20:06 | 53.32494 | -0.09429 | 27951 ft | 467 kts | 293° |
| 2026-04-30 20:07 | 53.33908 | -0.14234 | 27352 ft | 461 kts | 293° |
| 2026-04-30 20:07 | 53.35309 | -0.19011 | 26870 ft | 453 kts | 293° |
| 2026-04-30 20:07 | 53.38050 | -0.28444 | 25843 ft | 449 kts | 293° |
| 2026-04-30 20:08 | 53.39409 | -0.33145 | 25330 ft | 446 kts | 293° |
| 2026-04-30 20:08 | 53.40756 | -0.37808 | 24837 ft | 443 kts | 293° |
| 2026-04-30 20:08 | 53.42097 | -0.42451 | 24333 ft | 441 kts | 293° |
| 2026-04-30 20:08 | 53.43427 | -0.47066 | 23846 ft | 438 kts | 293° |
| 2026-04-30 20:09 | 53.44743 | -0.51652 | 23305 ft | 434 kts | 293° |
| 2026-04-30 20:09 | 53.46047 | -0.56208 | 22837 ft | 432 kts | 292° |
| 2026-04-30 20:09 | 53.48621 | -0.65219 | 21871 ft | 425 kts | 293° |
| 2026-04-30 20:10 | 53.51159 | -0.74116 | 20925 ft | 419 kts | 293° |
| 2026-04-30 20:10 | 53.52407 | -0.78509 | 20452 ft | 416 kts | 293° |
| 2026-04-30 20:10 | 53.53647 | -0.82882 | 19981 ft | 412 kts | 293° |
| 2026-04-30 20:11 | 53.56077 | -0.91471 | 19066 ft | 406 kts | 293° |
| 2026-04-30 20:11 | 53.57282 | -0.95752 | 18621 ft | 403 kts | 293° |
| 2026-04-30 20:11 | 53.58477 | -1.00012 | 18125 ft | 401 kts | 292° |
| 2026-04-30 20:12 | 53.60747 | -1.08508 | 17223 ft | 394 kts | 285° |
| 2026-04-30 20:12 | 53.61438 | -1.12944 | 16945 ft | 391 kts | 279° |
| 2026-04-30 20:12 | 53.62045 | -1.17400 | 16682 ft | 390 kts | 280° |
| 2026-04-30 20:13 | 53.62657 | -1.21852 | 16405 ft | 389 kts | 280° |
| 2026-04-30 20:13 | 53.63267 | -1.26288 | 16128 ft | 388 kts | 279° |
| 2026-04-30 20:13 | 53.63872 | -1.30711 | 15853 ft | 387 kts | 279° |
| 2026-04-30 20:13 | 53.64473 | -1.35123 | 15579 ft | 385 kts | 279° |
| 2026-04-30 20:14 | 53.65069 | -1.39517 | 15310 ft | 382 kts | 279° |
| 2026-04-30 20:14 | 53.65650 | -1.43825 | 15032 ft | 373 kts | 279° |
| 2026-04-30 20:14 | 53.66215 | -1.48019 | 14868 ft | 361 kts | 279° |
| 2026-04-30 20:14 | 53.66764 | -1.52093 | 14658 ft | 353 kts | 279° |
| 2026-04-30 20:15 | 53.67297 | -1.56082 | 14495 ft | 344 kts | 278° |
| 2026-04-30 20:15 | 53.67818 | -1.59992 | 14240 ft | 339 kts | 278° |
| 2026-04-30 20:15 | 53.68327 | -1.63829 | 14006 ft | 333 kts | 278° |
| 2026-04-30 20:15 | 53.68820 | -1.67563 | 13773 ft | 327 kts | 278° |
| 2026-04-30 20:16 | 53.69314 | -1.71317 | 13553 ft | 321 kts | 278° |
| 2026-04-30 20:16 | 53.69790 | -1.74941 | 13344 ft | 319 kts | 278° |
| 2026-04-30 20:16 | 53.70270 | -1.78590 | 13129 ft | 317 kts | 278° |
| 2026-04-30 20:16 | 53.70745 | -1.82223 | 12924 ft | 316 kts | 278° |
| 2026-04-30 20:17 | 53.71215 | -1.85835 | 12714 ft | 315 kts | 278° |
| 2026-04-30 20:17 | 53.71685 | -1.89436 | 12493 ft | 313 kts | 278° |
| 2026-04-30 20:17 | 53.72155 | -1.93030 | 12290 ft | 312 kts | 278° |
| 2026-04-30 20:17 | 53.72618 | -1.96593 | 12075 ft | 310 kts | 278° |
| 2026-04-30 20:18 | 53.73075 | -2.00135 | 11880 ft | 309 kts | 277° |
| 2026-04-30 20:18 | 53.73531 | -2.03688 | 11671 ft | 309 kts | 277° |
| 2026-04-30 20:18 | 53.73983 | -2.07218 | 11468 ft | 307 kts | 277° |
| 2026-04-30 20:18 | 53.74311 | -2.10756 | 11261 ft | 302 kts | 268° |
| 2026-04-30 20:19 | 53.74235 | -2.14281 | 11043 ft | 299 kts | 262° |
| 2026-04-30 20:19 | 53.74141 | -2.16599 | 10902 ft | 298 kts | 262° |
| 2026-04-30 20:19 | 53.73959 | -2.21217 | 10611 ft | 297 kts | 262° |
| 2026-04-30 20:19 | 53.73822 | -2.24740 | 10394 ft | 296 kts | 262° |
| 2026-04-30 20:20 | 53.73687 | -2.28205 | 10250 ft | 295 kts | 262° |
| 2026-04-30 20:20 | 53.73552 | -2.31608 | 10214 ft | 295 kts | 262° |
| 2026-04-30 20:20 | 53.73412 | -2.35063 | 10221 ft | 295 kts | 262° |
| 2026-04-30 20:20 | 53.73270 | -2.38523 | 10220 ft | 295 kts | 262° |
| 2026-04-30 20:21 | 53.73126 | -2.41983 | 10220 ft | 295 kts | 262° |
| 2026-04-30 20:21 | 53.72983 | -2.45439 | 10222 ft | 295 kts | 262° |
| 2026-04-30 20:21 | 53.72814 | -2.48897 | 10216 ft | 293 kts | 257° |
| 2026-04-30 20:21 | 53.72088 | -2.52024 | 10214 ft | 283 kts | 230° |
| 2026-04-30 20:22 | 53.70649 | -2.54197 | 10192 ft | 277 kts | 205° |
| 2026-04-30 20:22 | 53.68845 | -2.55225 | 9960 ft | 272 kts | 191° |
| 2026-04-30 20:22 | 53.67007 | -2.55922 | 9697 ft | 269 kts | 190° |
| 2026-04-30 20:22 | 53.65223 | -2.56578 | 9439 ft | 263 kts | 190° |
| 2026-04-30 20:23 | 53.63455 | -2.57222 | 9181 ft | 257 kts | 190° |
| 2026-04-30 20:23 | 53.61723 | -2.57846 | 8925 ft | 252 kts | 190° |
| 2026-04-30 20:23 | 53.60024 | -2.58459 | 8669 ft | 247 kts | 190° |
| 2026-04-30 20:23 | 53.58363 | -2.59062 | 8433 ft | 242 kts | 191° |
| 2026-04-30 20:24 | 53.56735 | -2.59644 | 8182 ft | 237 kts | 190° |
| 2026-04-30 20:24 | 53.55135 | -2.60213 | 7933 ft | 234 kts | 190° |
| 2026-04-30 20:24 | 53.53550 | -2.60783 | 7686 ft | 232 kts | 190° |
| 2026-04-30 20:24 | 53.51971 | -2.61353 | 7440 ft | 231 kts | 190° |
| 2026-04-30 20:25 | 53.48854 | -2.62484 | 6950 ft | 225 kts | 190° |
| 2026-04-30 20:25 | 53.47342 | -2.63042 | 6716 ft | 220 kts | 190° |
| 2026-04-30 20:26 | 53.44404 | -2.64137 | 6207 ft | 213 kts | 190° |
| 2026-04-30 20:26 | 53.41551 | -2.65182 | 5710 ft | 207 kts | 190° |
| 2026-04-30 20:26 | 53.40143 | -2.65677 | 5459 ft | 206 kts | 190° |
| 2026-04-30 20:27 | 53.37367 | -2.66632 | 4965 ft | 204 kts | 190° |
| 2026-04-30 20:27 | 53.34612 | -2.67571 | 4448 ft | 201 kts | 190° |
| 2026-04-30 20:28 | 53.32334 | -2.68382 | 4022 ft | 198 kts | 190° |
| 2026-04-30 20:28 | 53.29742 | -2.68132 | 3522 ft | 192 kts | 147° |
| 2026-04-30 20:29 | 53.27659 | -2.65340 | 3080 ft | 190 kts | 141° |
| 2026-04-30 20:30 | 53.24723 | -2.61158 | 3018 ft | 175 kts | 140° |
| 2026-04-30 20:30 | 53.24455 | -2.55262 | 3016 ft | 189 kts | 82° |
| 2026-04-30 20:31 | 53.25548 | -2.48907 | 3031 ft | 191 kts | 81° |
| 2026-04-30 20:32 | 53.27751 | -2.43205 | 2454 ft | 197 kts | 58° |
| 2026-04-30 20:32 | 53.29391 | -2.39850 | 1935 ft | 175 kts | 59° |
| 2026-04-30 20:33 | 53.30129 | -2.38334 | 1730 ft | 157 kts | 60° |
| 2026-04-30 20:33 | 53.31391 | -2.35731 | 1316 ft | 137 kts | 59° |
| 2026-04-30 20:33 | 53.31984 | -2.34503 | 1131 ft | 135 kts | 58° |
| 2026-04-30 20:34 | 53.33159 | -2.32062 | 743 ft | 133 kts | 54° |
| 2026-04-30 20:34 | 53.34340 | -2.29641 | 397 ft | 134 kts | 49° |
| 2026-04-30 20:35 | 53.34920 | -2.28443 | 242 ft | 131 kts | 50° |
| 2026-04-30 20:35 | 53.35419 | -2.27411 | 259 ft | 93 kts | 52° |
| 2026-04-30 20:35 | 53.35827 | -2.26682 | 266 ft | 18 kts | 351° |
| 2026-04-30 20:36 | 53.35906 | -2.26705 | 259 ft | 6 kts | 351° |
| 2026-04-30 20:36 | 53.35917 | -2.26708 | 258 ft | 1 kts | 349° |
| 2026-04-30 20:36 | 53.35934 | -2.26823 | 251 ft | 9 kts | 303° |
| 2026-04-30 20:37 | 53.35959 | -2.26912 | 248 ft | 5 kts | 292° |
| 2026-04-30 20:37 | 53.35970 | -2.26962 | 248 ft | 4 kts | 290° |
| 2026-04-30 20:37 | 53.35973 | -2.26972 | 248 ft | 1 kts | 291° |
| 2026-04-30 20:37 | 53.35974 | -2.26979 | 248 ft | 0 kts | 291° |